Time;durP1;ratioP1;P1;durP2;ratioP2;P2;SDS_P1;SDS_P2;PMS_P1;PMS_P2;Temp;Humidity;BMP_temperature;BMP_pressure;BME280_temperature;BME280_humidity;BME280_pressure;Samples;Min_cycle;Max_cycle;Signal;HPM_P1;HPM_P2
2023/03/22 00:00:59;;;;;;;2.92;2.13;;;;;;;8.59;91.06;100900.09;5071590;28;20035;-88
2023/03/22 00:03:24;;;;;;;3.10;1.90;;;;;;;8.58;91.04;100914.78;5073975;28;20025;-89
2023/03/22 00:05:56;;;;;;;2.70;2.00;;;;;;;8.53;91.13;100910.50;5076531;28;20020;-88
2023/03/22 00:08:34;;;;;;;1.83;1.73;;;;;;;8.50;91.28;100907.06;5076223;28;20024;-88
2023/03/22 00:11:00;;;;;;;2.13;1.80;;;;;;;8.41;91.12;100895.84;5076226;28;20037;-89
2023/03/22 00:13:25;;;;;;;2.63;1.80;;;;;;;8.38;91.25;100891.56;5076764;28;20105;-89
2023/03/22 00:15:58;;;;;;;2.97;1.70;;;;;;;8.35;91.10;100882.09;5075273;28;20090;-88
2023/03/22 00:18:24;;;;;;;1.73;1.60;;;;;;;8.32;91.27;100878.69;5076205;28;20065;-88
2023/03/22 00:20:58;;;;;;;1.70;1.52;;;;;;;8.36;91.32;100885.53;5075775;28;20021;-88
2023/03/22 00:23:24;;;;;;;2.38;1.55;;;;;;;8.31;91.20;100889.91;5076198;28;20036;-88
2023/03/22 00:25:59;;;;;;;2.50;1.80;;;;;;;8.21;91.47;100880.47;5075931;28;20498;-88
2023/03/22 00:28:24;;;;;;;2.50;1.70;;;;;;;8.23;91.32;100889.06;5076285;28;20385;-89
2023/03/22 00:30:59;;;;;;;3.13;1.70;;;;;;;8.17;91.31;100883.06;5075836;28;20041;-88
2023/03/22 00:33:24;;;;;;;2.60;1.73;;;;;;;8.15;91.02;100876.19;5076495;28;20048;-88
2023/03/22 00:35:52;;;;;;;1.83;1.60;;;;;;;8.03;91.13;100859.00;5075954;28;20056;-89
2023/03/22 00:38:24;;;;;;;1.50;1.40;;;;;;;8.01;91.43;100852.97;5075542;28;20229;-88
2023/03/22 00:40:49;;;;;;;1.98;1.40;;;;;;;7.95;91.41;100848.69;5075827;28;20025;-88
2023/03/22 00:43:16;;;;;;;1.60;1.40;;;;;;;8.01;91.30;100869.34;5075665;28;20036;-89
2023/03/22 00:45:47;;;;;;;2.60;1.60;;;;;;;7.93;91.27;100850.44;5075516;28;20034;-89
2023/03/22 00:48:24;;;;;;;1.35;1.25;;;;;;;7.85;91.73;100845.28;5075487;28;20029;-89
2023/03/22 00:50:50;;;;;;;1.52;1.30;;;;;;;7.90;92.05;100858.19;5075053;28;20048;-88
2023/03/22 00:53:15;;;;;;;1.90;1.70;;;;;;;7.78;91.64;100833.25;5075922;28;20041;-89
2023/03/22 00:55:41;;;;;;;2.70;1.80;;;;;;;7.83;91.88;100831.50;5075917;28;20552;-88
2023/03/22 00:58:06;;;;;;;5.20;2.10;;;;;;;7.87;92.20;100838.41;5074706;28;20115;-89
2023/03/22 01:00:52;;;;;;;3.20;2.13;;;;;;;7.82;92.17;100834.13;5075671;28;20050;-89
2023/03/22 01:03:20;;;;;;;3.20;2.20;;;;;;;7.79;92.20;100818.63;5073187;28;20492;-89
2023/03/22 01:05:48;;;;;;;2.45;1.83;;;;;;;7.87;92.24;100828.06;5074987;28;20036;-89
2023/03/22 01:08:20;;;;;;;3.45;2.10;;;;;;;7.81;92.01;100809.97;5075510;28;20361;-88
2023/03/22 01:10:49;;;;;;;4.03;2.10;;;;;;;7.88;92.43;100816.84;5075070;28;20037;-89
2023/03/22 01:13:14;;;;;;;3.60;2.28;;;;;;;7.87;92.35;100809.09;5075020;28;20464;-88
2023/03/22 01:15:40;;;;;;;5.97;2.80;;;;;;;7.96;92.47;100811.63;5074780;28;20028;-88
2023/03/22 01:18:07;;;;;;;5.60;2.80;;;;;;;7.94;93.24;100817.69;5074640;28;20032;-88
2023/03/22 01:20:33;;;;;;;5.28;3.00;;;;;;;7.95;92.78;100816.81;5075395;28;20032;-89
2023/03/22 01:23:05;;;;;;;5.40;3.10;;;;;;;7.86;92.83;100790.16;5074676;28;20056;-89
2023/03/22 01:25:32;;;;;;;5.00;2.97;;;;;;;7.93;93.14;100791.00;5074689;28;20073;-88
2023/03/22 01:27:57;;;;;;;6.57;3.00;;;;;;;7.91;94.38;100777.22;5075073;28;20024;-88
2023/03/22 01:30:29;;;;;;;6.40;3.10;;;;;;;7.92;94.11;100768.59;5075313;28;20028;-89
2023/03/22 01:33:07;;;;;;;5.50;2.90;;;;;;;7.96;93.69;100770.28;5074679;28;20043;-88
2023/03/22 01:35:44;;;;;;;6.13;3.00;;;;;;;7.95;93.73;100755.66;5074852;28;20031;-88
2023/03/22 01:38:21;;;;;;;3.53;2.63;;;;;;;7.93;94.42;100746.19;5074516;28;20111;-89
2023/03/22 01:40:47;;;;;;;4.18;2.67;;;;;;;7.96;94.65;100749.59;5073452;28;20038;-88
2023/03/22 01:43:16;;;;;;;4.20;2.70;;;;;;;8.02;94.31;100746.13;5074593;28;20020;-89
2023/03/22 01:45:51;;;;;;;4.80;2.90;;;;;;;8.15;94.26;100754.69;5074678;28;20025;-89
2023/03/22 01:48:25;;;;;;;5.47;3.05;;;;;;;8.20;94.89;100742.56;5074726;28;20025;-89
2023/03/22 01:51:05;;;;;;;5.10;3.22;;;;;;;8.24;94.57;100738.22;5074626;28;20033;-89
2023/03/22 01:53:38;;;;;;;7.30;3.90;;;;;;;8.25;94.56;100729.59;5075149;28;20022;-89
2023/03/22 01:56:04;;;;;;;7.38;3.88;;;;;;;8.28;94.73;100720.09;5078786;28;20028;-88
2023/03/22 01:58:31;;;;;;;8.43;3.95;;;;;;;8.31;94.56;100716.66;5074009;28;20078;-88
2023/03/22 02:01:10;;;;;;;9.43;4.72;;;;;;;8.40;95.08;100715.69;5073943;28;20099;-89
2023/03/22 02:04:03;;;;;;;11.25;4.80;;;;;;;8.40;95.41;100710.53;5074610;28;20105;-88
2023/03/22 02:06:31;;;;;;;10.70;5.00;;;;;;;8.50;97.06;100712.19;5074469;28;20043;-88
2023/03/22 02:08:57;;;;;;;8.38;4.68;;;;;;;8.53;96.13;100706.16;5073562;28;20070;-89
2023/03/22 02:11:53;;;;;;;10.60;5.00;;;;;;;8.62;95.23;100706.91;5074213;28;20025;-89
2023/03/22 02:14:34;;;;;;;15.38;6.70;;;;;;;8.66;95.99;100705.16;5039189;28;20037;-88
2023/03/22 02:20:23;;;;;;;14.40;6.32;;;;;;;8.72;96.38;100707.69;5033844;28;20028;-89
2023/03/22 02:23:04;;;;;;;13.10;6.13;;;;;;;8.71;98.17;100705.97;5073814;28;20028;-89
2023/03/22 02:25:51;;;;;;;12.38;5.90;;;;;;;8.72;96.66;100699.91;5073310;28;20029;-89
2023/03/22 02:28:32;;;;;;;11.20;5.40;;;;;;;8.72;97.02;100705.09;5073288;28;20028;-89
2023/03/22 02:31:24;;;;;;;12.30;6.03;;;;;;;8.76;96.72;100691.25;5073333;28;20510;-89
2023/03/22 02:34:07;;;;;;;13.38;6.45;;;;;;;8.83;96.46;100697.25;5074131;28;20028;-89
2023/03/22 02:37:18;;;;;;;12.63;6.28;;;;;;;8.80;96.56;100694.69;5073868;28;20021;-89
2023/03/22 02:39:52;;;;;;;14.85;6.85;;;;;;;8.88;97.01;100692.00;4973233;28;20031;-89
2023/03/22 02:42:35;;;;;;;11.15;5.82;;;;;;;8.84;97.12;100696.34;5066345;28;20548;-89
2023/03/22 02:45:14;;;;;;;11.65;6.03;;;;;;;8.85;97.30;100694.63;5074021;28;20016;-89
2023/03/22 02:47:55;;;;;;;11.90;5.90;;;;;;;8.89;97.39;100688.56;5074337;28;20104;-89
2023/03/22 02:50:45;;;;;;;12.85;5.65;;;;;;;8.90;97.03;100679.88;5074447;28;20531;-89
2023/03/22 02:53:34;;;;;;;12.27;5.72;;;;;;;8.94;97.20;100690.22;5074045;28;20040;-90
2023/03/22 02:56:06;;;;;;;12.43;6.00;;;;;;;8.84;98.42;100673.03;5073503;28;20024;-89
2023/03/22 02:58:49;;;;;;;10.82;5.72;;;;;;;8.81;97.53;100658.41;5073781;28;20077;-89
2023/03/22 03:01:25;;;;;;;9.85;5.18;;;;;;;8.87;97.35;100659.25;5074583;28;20499;-89
2023/03/22 03:04:08;;;;;;;12.38;5.88;;;;;;;8.93;97.95;100661.75;5074162;28;20028;-89
2023/03/22 03:06:39;;;;;;;11.10;5.20;;;;;;;8.93;97.44;100662.63;5074264;28;20511;-90
2023/03/22 03:09:06;;;;;;;10.05;4.97;;;;;;;8.91;97.33;100655.72;5073130;28;20091;-89
2023/03/22 03:11:38;;;;;;;10.07;5.03;;;;;;;8.90;97.01;100659.19;5073654;28;20035;-89
2023/03/22 03:14:03;;;;;;;9.68;4.72;;;;;;;8.95;97.46;100663.44;5074196;28;20086;-90
2023/03/22 03:19:36;;;;;;;9.50;4.57;;;;;;;8.94;97.35;100658.28;5074123;28;20142;-89
2023/03/22 03:22:22;;;;;;;8.80;4.80;;;;;;;8.97;97.47;100647.91;5073987;28;20044;-90
2023/03/22 03:25:00;;;;;;;8.90;4.82;;;;;;;8.87;97.54;100647.13;5073540;28;20041;-89
2023/03/22 03:27:38;;;;;;;10.75;4.70;;;;;;;8.91;97.89;100643.66;5074085;28;20052;-89
2023/03/22 03:30:26;;;;;;;10.13;4.85;;;;;;;8.85;98.01;100638.53;5073384;28;20043;-89
2023/03/22 03:33:03;;;;;;;11.27;5.10;;;;;;;8.92;97.36;100644.50;5073417;28;20029;-89
2023/03/22 03:35:39;;;;;;;7.78;4.40;;;;;;;8.84;97.38;100641.16;5054110;28;20508;-90
2023/03/22 03:38:17;;;;;;;9.45;4.25;;;;;;;8.93;97.76;100649.69;5054128;28;20036;-89
2023/03/22 03:40:48;;;;;;;7.65;4.10;;;;;;;8.85;97.31;100635.94;5056537;28;20025;-89
2023/03/22 03:43:31;;;;;;;11.45;4.93;;;;;;;8.94;97.53;100646.22;5057807;28;20084;-89
2023/03/22 03:46:07;;;;;;;7.88;4.25;;;;;;;8.92;97.50;100647.09;5056308;28;20025;-90
2023/03/22 03:48:54;;;;;;;6.00;3.70;;;;;;;8.91;97.19;100648.84;5057524;28;20025;-89
2023/03/22 03:51:26;;;;;;;9.30;4.20;;;;;;;8.82;97.06;100630.81;5057355;28;20048;-90
2023/03/22 03:53:51;;;;;;;6.53;3.70;;;;;;;8.90;97.20;100654.88;5056565;28;20021;-89
2023/03/22 03:56:16;;;;;;;8.07;3.80;;;;;;;8.84;97.16;100648.91;5057491;28;20079;-90
2023/03/22 03:58:41;;;;;;;8.37;4.00;;;;;;;8.87;96.83;100652.31;5057420;28;20079;-90
2023/03/22 04:01:10;;;;;;;7.70;3.90;;;;;;;8.89;97.20;100665.25;5058892;28;20132;-89
2023/03/22 04:03:35;;;;;;;6.95;3.95;;;;;;;8.79;97.02;100646.38;5082665;28;20040;-89
2023/03/22 04:06:03;;;;;;;4.57;2.93;;;;;;;8.87;97.00;100659.25;5077013;28;20021;-89
2023/03/22 04:08:31;;;;;;;8.30;3.78;;;;;;;8.79;96.87;100639.47;5076252;28;20021;-89
2023/03/22 04:11:00;;;;;;;8.40;3.80;;;;;;;8.77;96.63;100642.94;5076638;28;20021;-89
2023/03/22 04:13:31;;;;;;;5.40;3.50;;;;;;;8.74;96.87;100642.97;5077118;28;20025;-89
2023/03/22 04:15:56;;;;;;;6.90;3.63;;;;;;;8.72;96.83;100635.22;5075753;28;20464;-89
2023/03/22 04:18:28;;;;;;;8.57;3.57;;;;;;;8.78;97.08;100655.00;5076923;28;20029;-89
2023/03/22 04:21:18;;;;;;;9.10;3.75;;;;;;;8.76;96.71;100652.44;5076482;28;20020;-89
2023/03/22 04:23:45;;;;;;;5.30;3.20;;;;;;;8.72;96.84;100650.75;5076356;28;20131;-89
2023/03/22 04:26:11;;;;;;;5.05;3.15;;;;;;;8.71;96.98;100650.78;5076197;28;20036;-89
2023/03/22 04:28:36;;;;;;;5.17;2.87;;;;;;;8.67;96.72;100641.34;5064210;28;20041;-88
2023/03/22 04:31:02;;;;;;;8.77;3.40;;;;;;;8.69;96.83;100634.41;5076637;28;20044;-89
2023/03/22 04:33:31;;;;;;;6.97;3.17;;;;;;;8.63;96.87;100627.56;5076762;28;20086;-90
2023/03/22 04:35:56;;;;;;;7.72;3.40;;;;;;;8.59;96.78;100620.72;5067651;28;20036;-89
2023/03/22 04:38:24;;;;;;;6.60;3.33;;;;;;;8.73;96.37;100639.53;5076252;28;20381;-89
2023/03/22 04:43:45;;;;;;;6.78;3.33;;;;;;;8.63;96.64;100625.00;5076660;28;20067;-89
2023/03/22 04:46:30;;;;;;;6.18;3.08;;;;;;;8.61;96.60;100627.56;5076501;28;20021;-89
2023/03/22 04:48:56;;;;;;;6.82;3.42;;;;;;;8.62;96.28;100620.69;5076151;28;20032;-89
2023/03/22 04:51:21;;;;;;;6.17;3.27;;;;;;;8.57;96.82;100622.44;5074806;28;20065;-89
2023/03/22 04:53:59;;;;;;;5.63;3.37;;;;;;;8.56;96.96;100619.03;5075867;28;20020;-90
2023/03/22 04:56:33;;;;;;;8.02;3.28;;;;;;;8.57;96.74;100612.09;5075360;28;20455;-89
2023/03/22 04:59:02;;;;;;;7.47;3.58;;;;;;;8.65;96.55;100626.69;5075271;28;20072;-89
2023/03/22 05:01:41;;;;;;;7.45;3.35;;;;;;;8.58;96.75;100619.00;5075936;28;20016;-89
2023/03/22 05:04:07;;;;;;;8.00;3.55;;;;;;;8.64;96.48;100619.78;5075202;28;20032;-89
2023/03/22 05:06:33;;;;;;;7.17;3.37;;;;;;;8.54;96.84;100615.59;5075778;28;20024;-88
2023/03/22 05:08:59;;;;;;;9.70;3.43;;;;;;;8.58;96.86;100606.06;5075525;28;20372;-89
2023/03/22 05:11:26;;;;;;;7.20;3.10;;;;;;;8.59;96.69;100613.81;5075102;28;20024;-89
2023/03/22 05:13:53;;;;;;;5.32;2.97;;;;;;;8.54;96.77;100607.00;5075235;28;20107;-88
2023/03/22 05:16:21;;;;;;;5.53;2.67;;;;;;;8.58;97.11;100609.53;5075860;28;20388;-89
2023/03/22 05:18:47;;;;;;;6.57;3.13;;;;;;;8.57;97.11;100612.97;5074914;28;20071;-88
2023/03/22 05:21:35;;;;;;;6.50;3.17;;;;;;;8.63;96.89;100614.66;5075615;28;20376;-89
2023/03/22 05:24:01;;;;;;;8.73;3.42;;;;;;;8.67;96.54;100615.47;5075136;28;20028;-88
2023/03/22 05:26:26;;;;;;;9.67;3.50;;;;;;;8.72;96.38;100614.53;5074993;28;20049;-88
2023/03/22 05:28:53;;;;;;;7.77;3.27;;;;;;;8.63;96.59;100605.13;5074602;28;20472;-88
2023/03/22 05:31:20;;;;;;;7.97;3.10;;;;;;;8.59;96.69;100611.25;5074747;28;20020;-88
2023/03/22 05:33:47;;;;;;;6.40;3.10;;;;;;;8.56;97.21;100611.25;5074626;28;20024;-88
2023/03/22 05:36:12;;;;;;;5.72;2.83;;;;;;;8.60;96.86;100617.25;5074806;28;20028;-89
2023/03/22 05:38:38;;;;;;;6.80;3.00;;;;;;;8.60;96.44;100614.66;5074681;28;20032;-89
2023/03/22 05:41:04;;;;;;;8.55;3.38;;;;;;;8.58;96.70;100609.53;5074784;28;20295;-88
2023/03/22 05:43:29;;;;;;;8.23;2.90;;;;;;;8.65;96.24;100607.72;5074936;28;20023;-88
2023/03/22 05:45:54;;;;;;;6.17;2.90;;;;;;;8.62;96.37;100610.34;5074415;28;20021;-89
2023/03/22 05:48:20;;;;;;;6.43;2.90;;;;;;;8.62;96.20;100618.09;5074793;28;20027;-88
2023/03/22 05:50:45;;;;;;;6.30;2.60;;;;;;;8.60;96.07;100615.53;5074330;28;20020;-89
2023/03/22 05:53:10;;;;;;;5.17;2.80;;;;;;;8.58;95.68;100601.75;5074220;28;20028;-89
2023/03/22 05:55:36;;;;;;;6.10;2.83;;;;;;;8.68;95.33;100612.00;5074434;28;20025;-88
2023/03/22 05:58:03;;;;;;;5.73;2.70;;;;;;;8.63;95.78;100594.78;5074006;28;20108;-88
2023/03/22 06:00:30;;;;;;;5.75;2.70;;;;;;;8.62;95.85;100623.28;5074441;28;20036;-89
2023/03/22 06:02:59;;;;;;;;;;;;;;;8.62;96.28;100620.69;5074601;28;20107;-89
2023/03/22 06:05:25;;;;;;;9.38;2.80;;;;;;;8.56;96.02;100612.97;5074422;28;19958;-89
2023/03/22 06:10:47;;;;;;;7.18;2.90;;;;;;;8.56;95.96;100600.03;5074568;28;20041;-89
2023/03/22 06:13:13;;;;;;;5.43;2.80;;;;;;;8.64;95.68;100603.44;5075351;28;20066;-89
2023/03/22 06:15:38;;;;;;;7.37;2.80;;;;;;;8.59;95.72;100598.31;5074332;28;20024;-89
2023/03/22 06:18:04;;;;;;;8.47;2.80;;;;;;;8.68;95.58;100614.59;5074060;28;20032;-88
2023/03/22 06:20:32;;;;;;;4.60;2.50;;;;;;;8.72;95.32;100617.13;5074064;28;20051;-88
2023/03/22 06:23:04;;;;;;;7.53;3.17;;;;;;;8.71;95.13;100593.88;5073781;28;20507;-89
2023/03/22 06:25:29;;;;;;;5.40;2.42;;;;;;;8.69;95.72;100585.25;5074229;28;20024;-89
2023/03/22 06:28:01;;;;;;;6.20;2.60;;;;;;;8.72;94.93;100580.91;5074263;28;20082;-92
2023/03/22 06:30:32;;;;;;;5.03;2.50;;;;;;;8.76;95.08;100598.13;5073890;28;20021;-85
2023/03/22 06:32:59;;;;;;;5.88;2.75;;;;;;;8.81;95.16;100596.31;5072408;28;20024;-86
2023/03/22 06:35:34;;;;;;;7.85;2.80;;;;;;;8.87;94.88;100600.56;5071966;28;20089;-86
2023/03/22 06:38:00;;;;;;;5.05;2.60;;;;;;;8.86;95.60;100600.59;5074103;28;20028;-80
2023/03/22 06:40:26;;;;;;;6.77;2.60;;;;;;;8.88;95.22;100604.00;5073177;28;20031;-88
2023/03/22 06:42:53;;;;;;;5.77;2.73;;;;;;;8.85;95.22;100599.72;5072889;28;20021;-88
2023/03/22 06:45:34;;;;;;;;;;;;;;;8.95;95.21;100614.25;5073274;28;20029;-88
2023/03/22 06:48:00;;;;;;;8.05;2.97;;;;;;;9.06;94.55;100614.13;5072887;28;20361;-87
2023/03/22 06:50:26;;;;;;;7.70;3.03;;;;;;;9.06;94.31;100613.28;5072885;28;20081;-88
2023/03/22 06:52:51;;;;;;;5.53;3.30;;;;;;;9.02;94.91;100603.84;5073091;28;20478;-88
2023/03/22 06:55:16;;;;;;;8.83;3.03;;;;;;;9.09;94.72;100610.63;5073178;28;20028;-87
2023/03/22 06:57:57;;;;;;;8.17;3.20;;;;;;;9.16;94.28;100604.53;5073103;28;20496;-88
2023/03/22 07:00:22;;;;;;;6.50;3.08;;;;;;;9.15;94.53;100601.94;5072626;28;20104;-87
2023/03/22 07:02:47;;;;;;;5.53;2.93;;;;;;;9.30;94.45;100604.31;5072310;28;20056;-88
2023/03/22 07:05:13;;;;;;;7.67;2.90;;;;;;;9.38;94.12;100601.63;5073116;28;20036;-88
2023/03/22 07:07:38;;;;;;;7.03;2.97;;;;;;;9.52;93.74;100604.03;5073067;28;20028;-88
2023/03/22 07:10:14;;;;;;;7.73;3.00;;;;;;;9.54;93.76;100599.69;5072402;28;20805;-84
2023/03/22 07:12:39;;;;;;;6.72;3.00;;;;;;;9.55;93.44;100598.81;5072391;28;20043;-89
2023/03/22 07:15:05;;;;;;;5.60;3.10;;;;;;;9.58;93.51;100588.38;5073234;28;20036;-91
2023/03/22 07:17:31;;;;;;;8.60;3.40;;;;;;;9.60;93.15;100603.91;5072413;28;20056;-81
2023/03/22 07:19:56;;;;;;;7.60;3.20;;;;;;;9.60;93.51;100609.09;5072563;28;20469;-80
2023/03/22 07:22:21;;;;;;;4.17;2.80;;;;;;;9.62;93.30;100605.59;5073181;28;20500;-88
2023/03/22 07:24:50;;;;;;;4.50;2.63;;;;;;;9.62;93.46;100603.00;5072857;28;20138;-88
2023/03/22 07:27:17;;;;;;;8.63;3.42;;;;;;;9.70;92.50;100602.88;5072947;28;20511;-81
2023/03/22 07:29:45;;;;;;;5.60;3.05;;;;;;;9.70;92.88;100615.84;5072242;28;20025;-81
2023/03/22 07:32:13;;;;;;;9.93;3.65;;;;;;;9.74;92.04;100618.38;5071768;28;20029;-81
2023/03/22 07:34:39;;;;;;;8.45;3.47;;;;;;;9.75;92.66;100611.44;5072012;28;20099;-82
2023/03/22 07:37:05;;;;;;;9.80;3.63;;;;;;;9.84;92.10;100623.41;5071819;28;20060;-80
2023/03/22 07:39:30;;;;;;;9.00;3.70;;;;;;;9.87;91.35;100619.00;5072863;28;20024;-91
2023/03/22 07:41:56;;;;;;;8.80;3.93;;;;;;;9.87;91.90;100613.84;5071902;28;20434;-84
2023/03/22 07:44:27;;;;;;;10.70;4.20;;;;;;;9.94;91.17;100606.81;5072405;28;20095;-81
2023/03/22 07:46:52;;;;;;;7.80;3.80;;;;;;;10.01;91.24;100615.34;5059442;28;20032;-79
2023/03/22 07:49:18;;;;;;;8.87;3.67;;;;;;;10.05;91.02;100622.22;5064378;28;20021;-83
2023/03/22 07:51:45;;;;;;;8.87;3.70;;;;;;;10.13;90.58;100622.09;5064099;28;20025;-88
2023/03/22 07:54:13;;;;;;;;;;;;;;;10.18;90.20;100625.44;5072446;28;20074;-88
2023/03/22 07:59:24;;;;;;;7.75;3.40;;;;;;;10.36;89.76;100604.34;5072337;28;20028;-89
2023/03/22 08:01:49;;;;;;;9.17;3.40;;;;;;;10.40;87.49;100609.53;5073690;28;20107;-91
2023/03/22 08:04:15;;;;;;;7.27;3.27;;;;;;;10.44;87.30;100618.97;5073356;28;20062;-90
2023/03/22 08:06:57;;;;;;;8.90;3.50;;;;;;;10.48;87.32;100618.00;5073826;28;20452;-89
2023/03/22 08:09:26;;;;;;;10.35;3.35;;;;;;;10.44;86.97;100624.16;5072224;28;20049;-84
2023/03/22 08:11:52;;;;;;;11.18;3.50;;;;;;;10.42;85.38;100626.75;5071913;28;20028;-91
2023/03/22 08:14:17;;;;;;;6.07;2.77;;;;;;;10.45;87.87;100631.06;5071537;28;20039;-86
2023/03/22 08:16:45;;;;;;;5.77;2.87;;;;;;;10.55;86.34;100626.53;5064229;28;20059;-86
2023/03/22 08:19:11;;;;;;;10.60;3.00;;;;;;;10.59;86.49;100618.66;5069779;28;20109;-85
2023/03/22 08:21:37;;;;;;;5.67;2.50;;;;;;;10.72;84.07;100629.69;5071002;28;20058;-85
2023/03/22 08:24:03;;;;;;;7.97;2.53;;;;;;;10.69;84.90;100634.09;5053520;28;20021;-81
2023/03/22 08:26:29;;;;;;;9.57;2.90;;;;;;;10.76;85.55;100633.06;5063740;28;20131;-82
2023/03/22 08:28:57;;;;;;;6.87;2.70;;;;;;;10.77;85.25;100627.84;5073990;28;20115;-82
2023/03/22 08:31:22;;;;;;;6.43;2.70;;;;;;;10.89;84.00;100629.34;5075244;28;20046;-85
2023/03/22 08:33:48;;;;;;;7.47;2.53;;;;;;;10.90;84.77;100625.88;5073363;28;20460;-84
2023/03/22 08:36:17;;;;;;;10.70;2.67;;;;;;;11.07;84.09;100632.44;5074767;28;20024;-88
2023/03/22 08:38:43;;;;;;;4.22;2.30;;;;;;;11.06;82.60;100620.34;5075941;28;20041;-88
2023/03/22 08:41:09;;;;;;;7.90;2.30;;;;;;;11.15;84.14;100620.16;5075529;28;20024;-88
2023/03/22 08:43:34;;;;;;;8.97;2.90;;;;;;;11.21;82.54;100614.84;5075935;28;20025;-89
2023/03/22 08:46:00;;;;;;;5.47;2.57;;;;;;;11.30;83.16;100615.53;5076135;28;20031;-88
2023/03/22 08:48:27;;;;;;;6.80;2.40;;;;;;;11.33;82.19;100618.06;5075776;28;20020;-89
2023/03/22 08:50:53;;;;;;;6.65;2.40;;;;;;;11.38;82.88;100618.78;5075844;28;20027;-88
2023/03/22 08:53:18;;;;;;;6.23;2.33;;;;;;;11.39;82.52;100616.19;5075782;28;20020;-88
2023/03/22 08:55:43;;;;;;;4.77;2.30;;;;;;;11.44;81.97;100619.53;5075538;28;20023;-88
2023/03/22 08:58:18;;;;;;;7.33;2.50;;;;;;;11.47;82.29;100622.94;5075253;28;20086;-86
2023/03/22 09:00:43;;;;;;;8.73;2.35;;;;;;;11.56;81.89;100607.13;5075111;28;20045;-85
2023/03/22 09:03:09;;;;;;;9.03;2.73;;;;;;;11.55;80.49;100608.03;5073843;28;20115;-87
2023/03/22 09:05:34;;;;;;;6.17;2.47;;;;;;;11.65;81.09;100608.66;5074837;28;20017;-87
2023/03/22 09:08:00;;;;;;;4.93;2.10;;;;;;;11.63;80.49;100607.84;5074684;28;20020;-88
2023/03/22 09:10:27;;;;;;;5.45;2.20;;;;;;;11.66;81.26;100606.03;5074290;28;20020;-86
2023/03/22 09:12:52;;;;;;;10.35;2.60;;;;;;;11.81;79.09;100609.16;5074588;28;20036;-85
2023/03/22 09:15:18;;;;;;;7.67;2.60;;;;;;;11.82;78.88;100593.50;5075745;28;20020;-89
2023/03/22 09:17:43;;;;;;;6.17;2.27;;;;;;;11.83;78.90;100613.41;5074030;28;20032;-90
2023/03/22 09:20:09;;;;;;;4.27;2.27;;;;;;;11.86;78.58;100597.75;5075280;28;20074;-90
2023/03/22 09:22:34;;;;;;;8.23;2.53;;;;;;;11.93;78.62;100602.81;5082723;22;20045;-89
2023/03/22 09:25:00;;;;;;;6.93;1.93;;;;;;;12.00;77.56;100592.22;5075163;28;20460;-89
2023/03/22 09:30:19;;;;;;;4.70;2.05;;;;;;;12.12;77.58;100593.69;5075640;28;20086;-90
2023/03/22 09:32:44;;;;;;;6.83;2.00;;;;;;;12.14;76.61;100601.44;5074690;28;20028;-88
2023/03/22 09:35:10;;;;;;;8.63;2.30;;;;;;;12.05;75.96;100595.59;5076083;28;20533;-90
2023/03/22 09:37:35;;;;;;;5.50;2.10;;;;;;;12.03;78.07;100596.53;5074926;28;20017;-91
2023/03/22 09:40:00;;;;;;;4.17;1.97;;;;;;;12.07;79.13;100599.91;5075919;28;20020;-90
2023/03/22 09:42:49;;;;;;;5.90;2.17;;;;;;;12.10;78.85;100602.44;5075205;28;20040;-90
2023/03/22 09:45:28;;;;;;;5.18;1.92;;;;;;;12.01;74.84;100583.53;5075211;28;20021;-89
2023/03/22 09:47:56;;;;;;;6.75;2.10;;;;;;;12.02;77.75;100589.63;5075190;28;20074;-90
2023/03/22 09:50:25;;;;;;;4.20;1.77;;;;;;;11.95;77.92;100588.00;5074573;28;20016;-90
2023/03/22 09:52:51;;;;;;;4.40;1.70;;;;;;;11.94;77.75;100583.69;5074349;28;20032;-90
2023/03/22 09:55:21;;;;;;;6.45;2.15;;;;;;;11.92;76.88;100585.50;5075372;28;20437;-90
2023/03/22 09:58:01;;;;;;;7.35;2.20;;;;;;;11.87;75.06;100588.22;5074530;28;20108;-92
2023/03/22 10:00:39;;;;;;;6.25;2.05;;;;;;;11.80;77.47;100595.31;5074679;28;20062;-90
2023/03/22 10:03:16;;;;;;;5.65;1.90;;;;;;;11.82;77.22;100590.06;5074421;28;20033;-87
2023/03/22 10:06:05;;;;;;;5.05;2.10;;;;;;;11.76;75.83;100588.47;5074012;28;20373;-88
2023/03/22 10:08:52;;;;;;;7.15;2.00;;;;;;;11.71;77.52;100592.91;5074855;28;20368;-89
2023/03/22 10:11:29;;;;;;;3.88;1.60;;;;;;;11.70;77.85;100596.44;5074422;28;20036;-92
2023/03/22 10:14:05;;;;;;;6.60;1.70;;;;;;;11.68;77.12;100593.84;5074869;28;20028;-89
2023/03/22 10:16:34;;;;;;;9.00;2.42;;;;;;;11.68;76.46;100595.63;5074442;28;20422;-89
2023/03/22 10:19:34;;;;;;;5.15;1.80;;;;;;;11.53;77.16;100589.88;5074856;28;20031;-89
2023/03/22 10:22:03;;;;;;;3.17;1.50;;;;;;;11.51;78.20;100601.19;5021020;28;20509;-89
2023/03/22 10:24:32;;;;;;;5.57;1.88;;;;;;;11.50;78.40;100596.91;5075134;28;20028;-89
2023/03/22 10:26:58;;;;;;;9.65;2.22;;;;;;;11.40;77.53;100602.31;5073370;28;20047;-88
2023/03/22 10:29:42;;;;;;;11.47;2.30;;;;;;;11.36;78.84;100615.41;5073934;28;20469;-88
2023/03/22 10:32:17;;;;;;;6.32;1.90;;;;;;;11.27;79.76;100609.50;5074126;28;20055;-88
2023/03/22 10:34:42;;;;;;;10.50;2.67;;;;;;;11.24;80.48;100612.19;5073715;28;20043;-88
2023/03/22 10:37:14;;;;;;;5.40;2.10;;;;;;;11.12;83.33;100613.28;5075590;28;20385;-89
2023/03/22 10:39:50;;;;;;;4.90;2.00;;;;;;;11.08;83.81;100611.66;5075207;28;20055;-90
2023/03/22 10:42:20;;;;;;;7.65;2.40;;;;;;;11.02;83.49;100616.13;5074280;28;20029;-89
2023/03/22 10:44:53;;;;;;;2.38;1.80;;;;;;;10.95;83.68;100611.03;5074272;28;20029;-90
2023/03/22 10:47:28;;;;;;;3.75;1.60;;;;;;;10.90;87.53;100607.69;5074012;28;20468;-92
2023/03/22 10:49:56;;;;;;;4.80;1.98;;;;;;;10.88;86.78;100616.38;5073800;28;20024;-89
2023/03/22 10:52:56;;;;;;;3.42;1.88;;;;;;;10.82;89.01;100602.66;5073562;28;20150;-89
2023/03/22 10:55:23;;;;;;;4.43;1.90;;;;;;;10.87;87.17;100610.34;5073230;28;20033;-88
2023/03/22 10:57:57;;;;;;;3.50;1.75;;;;;;;10.91;85.62;100598.16;5073197;28;20457;-91
2023/03/22 11:00:23;;;;;;;5.13;2.10;;;;;;;10.89;89.66;100611.19;5074115;28;20040;-89
2023/03/22 11:02:57;;;;;;;;;;;;;;;10.90;88.87;100615.50;5073303;28;20067;-87
2023/03/22 11:05:28;;;;;;;6.80;2.13;;;;;;;10.86;88.80;100607.81;5073539;28;19921;-89
2023/03/22 11:07:56;;;;;;;5.22;2.00;;;;;;;10.80;89.37;100613.97;5073708;28;20063;-88
2023/03/22 11:10:33;;;;;;;4.90;1.90;;;;;;;10.74;90.38;100612.34;5073450;28;20385;-88
2023/03/22 11:13:07;;;;;;;;;;;;;;;10.72;89.47;100602.84;5073987;28;20070;-88
2023/03/22 11:15:40;;;;;;;5.90;2.00;;;;;;;10.68;89.69;100609.84;5073692;28;19919;-88
2023/03/22 11:18:11;;;;;;;3.80;2.03;;;;;;;10.72;88.43;100610.66;5072469;28;20032;-87
2023/03/22 11:20:41;;;;;;;4.80;1.90;;;;;;;10.72;89.40;100600.25;5073494;28;20067;-88
2023/03/22 11:23:16;;;;;;;3.75;1.90;;;;;;;10.74;91.57;100590.72;5089397;22;20020;-88
2023/03/22 11:25:48;;;;;;;5.90;2.08;;;;;;;10.86;88.35;100597.41;5079977;22;20106;-88
2023/03/22 11:28:25;;;;;;;3.83;2.22;;;;;;;10.82;89.84;100592.28;5073260;28;20107;-88
2023/03/22 11:31:06;;;;;;;6.22;2.20;;;;;;;10.84;90.82;100594.00;5072281;28;20028;-87
2023/03/22 11:33:32;;;;;;;6.65;2.38;;;;;;;10.85;89.75;100587.91;5073330;28;20079;-88
2023/03/22 11:36:03;;;;;;;4.82;2.35;;;;;;;10.93;89.60;100593.78;5072717;28;20027;-87
2023/03/22 11:38:39;;;;;;;6.30;2.20;;;;;;;11.01;90.97;100585.84;5072560;28;20082;-88
2023/03/22 11:41:18;;;;;;;4.85;2.20;;;;;;;11.04;90.35;100590.97;5072649;28;20103;-88
2023/03/22 11:43:52;;;;;;;6.13;2.20;;;;;;;11.12;90.55;100594.25;5071113;28;20034;-88
2023/03/22 11:46:20;;;;;;;5.05;2.10;;;;;;;11.16;88.94;100593.28;5072574;28;20034;-88
2023/03/22 11:48:48;;;;;;;7.75;2.40;;;;;;;11.18;90.39;100593.28;5072665;28;20048;-88
2023/03/22 11:51:26;;;;;;;4.18;2.20;;;;;;;11.20;90.02;100592.34;5072077;28;20060;-88
2023/03/22 11:54:01;;;;;;;5.57;2.13;;;;;;;11.24;88.70;100586.22;5072658;28;20020;-87
2023/03/22 11:56:29;;;;;;;6.60;1.98;;;;;;;11.26;88.25;100587.00;5072937;28;20456;-92
2023/03/22 11:58:54;;;;;;;6.10;2.42;;;;;;;11.32;87.78;100586.00;5072539;28;20579;-89
2023/03/22 12:01:42;;;;;;;10.03;2.60;;;;;;;11.38;87.29;100579.81;5076898;28;20119;-83
2023/03/22 12:04:16;;;;;;;7.90;2.47;;;;;;;11.33;87.80;100581.69;5074437;28;20055;-86
2023/03/22 12:06:42;;;;;;;7.50;2.30;;;;;;;11.41;87.99;100575.44;5074851;28;20033;-86